Time;durP1;ratioP1;P1;durP2;ratioP2;P2;SDS_P1;SDS_P2;PMS_P1;PMS_P2;Temp;Humidity;BMP_temperature;BMP_pressure;BME280_temperature;BME280_humidity;BME280_pressure;Samples;Min_cycle;Max_cycle;Signal;HPM_P1;HPM_P2
2023/12/29 00:00:52;;;;;;;14.37;12.97;;;;;;;22.32;31.49;95699.53;6162387;28;110036;-57
2023/12/29 00:03:55;;;;;;;14.63;13.23;;;;;;;22.32;31.54;95706.75;6153728;28;108928;-57
2023/12/29 00:06:58;;;;;;;14.30;12.90;;;;;;;22.31;31.37;95707.81;6163696;28;109156;-56
2023/12/29 00:10:06;;;;;;;13.67;12.47;;;;;;;22.31;31.50;95707.81;6161735;28;109120;-56
2023/12/29 00:13:11;;;;;;;13.77;12.47;;;;;;;22.30;31.81;95696.38;6164793;28;109575;-56
2023/12/29 00:16:14;;;;;;;12.40;11.20;;;;;;;22.31;31.41;95699.81;6174281;28;109089;-58
2023/12/29 00:19:17;;;;;;;13.00;11.80;;;;;;;22.32;31.36;95698.75;6162595;28;108931;-59
2023/12/29 00:22:21;;;;;;;13.30;12.10;;;;;;;22.33;32.01;95711.00;6180898;28;110018;-56
2023/12/29 00:25:24;;;;;;;13.30;12.00;;;;;;;22.33;32.00;95709.13;6180699;28;109052;-56
2023/12/29 00:28:28;;;;;;;13.17;11.87;;;;;;;22.34;32.03;95708.03;6162976;28;110093;-56
2023/12/29 00:31:31;;;;;;;13.87;12.47;;;;;;;22.33;31.90;95711.00;6179865;28;109675;-56
2023/12/29 00:34:37;;;;;;;12.63;11.33;;;;;;;22.34;32.01;95712.56;6161958;28;109420;-56
2023/12/29 00:37:40;;;;;;;13.33;12.03;;;;;;;22.32;31.58;95715.53;6150376;28;109274;-57
2023/12/29 00:40:43;;;;;;;13.13;12.00;;;;;;;22.33;32.15;95711.00;6161696;28;109172;-56
2023/12/29 00:43:48;;;;;;;13.37;12.10;;;;;;;22.34;32.12;95712.56;6169607;28;109017;-56
2023/12/29 00:46:51;;;;;;;12.70;11.60;;;;;;;22.33;32.20;95705.66;6172965;28;109045;-56
2023/12/29 00:49:54;;;;;;;13.77;12.57;;;;;;;22.32;31.86;95709.41;6167511;28;109143;-58
2023/12/29 00:52:57;;;;;;;13.80;12.50;;;;;;;22.31;31.92;95700.63;6167917;28;109178;-57
2023/12/29 00:56:00;;;;;;;14.37;12.97;;;;;;;22.28;32.11;95687.88;6160371;28;109104;-56
2023/12/29 00:59:05;;;;;;;13.60;12.20;;;;;;;22.29;32.11;95691.31;6161168;28;111512;-56
2023/12/29 01:02:08;;;;;;;13.50;12.23;;;;;;;22.28;32.14;95684.41;6151182;28;110092;-57
2023/12/29 01:05:16;;;;;;;14.90;13.50;;;;;;;22.27;31.72;95688.16;6176035;28;110111;-57
2023/12/29 01:08:19;;;;;;;13.97;12.47;;;;;;;22.27;31.68;95683.63;6179435;28;111405;-56
2023/12/29 01:11:22;;;;;;;14.30;13.00;;;;;;;22.26;31.99;95700.72;6151573;28;109385;-57
2023/12/29 01:14:27;;;;;;;13.87;12.57;;;;;;;22.25;31.96;95682.34;6161416;28;109564;-56
2023/12/29 01:17:30;;;;;;;15.07;13.67;;;;;;;22.24;32.29;95678.88;6160750;28;108866;-56
2023/12/29 01:20:33;;;;;;;14.60;13.20;;;;;;;22.22;31.59;95681.03;6175700;28;110129;-56
2023/12/29 01:23:36;;;;;;;14.90;13.50;;;;;;;22.24;32.05;95683.41;6150978;28;108913;-56
2023/12/29 01:26:39;;;;;;;15.47;13.97;;;;;;;22.23;32.20;95687.97;6162042;28;109152;-56
2023/12/29 01:29:44;;;;;;;15.33;13.83;;;;;;;22.24;32.04;95694.09;6159778;28;109475;-56
2023/12/29 01:32:47;;;;;;;14.77;13.37;;;;;;;22.24;32.12;95694.09;6160274;28;109079;-56
2023/12/29 01:35:50;;;;;;;14.87;12.70;;;;;;;22.23;32.18;95679.16;6149589;28;109229;-56
2023/12/29 01:38:53;;;;;;;15.23;13.83;;;;;;;22.23;31.69;95681.84;6160941;28;110010;-56
2023/12/29 01:41:56;;;;;;;15.27;13.87;;;;;;;22.22;31.43;95673.06;6160414;28;110401;-56
2023/12/29 01:45:01;;;;;;;14.70;13.40;;;;;;;22.22;31.81;95682.91;6155869;28;110140;-56
2023/12/29 01:48:05;;;;;;;15.60;14.20;;;;;;;22.20;31.69;95674.44;6154280;28;109375;-57
2023/12/29 01:51:08;;;;;;;14.97;13.67;;;;;;;22.21;31.45;95686.66;6160561;28;109402;-56
2023/12/29 01:54:13;;;;;;;15.47;14.07;;;;;;;22.21;31.81;95681.34;6161724;28;109470;-56
2023/12/29 01:57:17;;;;;;;16.50;14.90;;;;;;;22.21;31.72;95681.34;6149238;28;110265;-56
2023/12/29 02:00:22;;;;;;;15.03;13.63;;;;;;;22.20;31.60;95674.44;6160582;28;109079;-56
2023/12/29 02:03:25;;;;;;;15.43;13.83;;;;;;;22.17;31.92;95686.44;6164034;28;110485;-56
2023/12/29 02:06:29;;;;;;;16.20;14.77;;;;;;;22.18;31.52;95688.03;6185110;28;109124;-56
2023/12/29 02:09:34;;;;;;;15.13;13.63;;;;;;;22.19;31.60;95689.63;6155117;28;109439;-56
2023/12/29 02:12:37;;;;;;;16.00;14.50;;;;;;;22.17;31.43;95680.31;6162066;28;109224;-56
2023/12/29 02:15:43;;;;;;;14.30;13.00;;;;;;;22.17;31.54;95680.31;6165966;28;110212;-57
2023/12/29 02:18:48;;;;;;;14.60;13.20;;;;;;;22.18;31.38;95671.22;6170017;28;109279;-58
2023/12/29 02:21:51;;;;;;;14.30;13.00;;;;;;;22.19;31.81;95662.19;6165056;28;109352;-57
2023/12/29 02:24:55;;;;;;;14.00;12.80;;;;;;;22.17;31.62;95654.44;6176197;28;109508;-57
2023/12/29 02:28:03;;;;;;;14.90;13.50;;;;;;;22.17;31.52;95653.66;6163501;28;110210;-58
2023/12/29 02:31:10;;;;;;;13.27;12.07;;;;;;;22.18;31.42;95652.56;6153583;28;109454;-57
2023/12/29 02:34:16;;;;;;;14.47;13.17;;;;;;;22.15;31.55;95645.16;6163487;28;109440;-57
2023/12/29 02:37:20;;;;;;;14.63;13.40;;;;;;;22.17;31.60;95643.00;6163910;28;110297;-57
2023/12/29 02:40:26;;;;;;;14.37;13.03;;;;;;;22.16;31.23;95636.88;6164245;28;109058;-57
2023/12/29 02:43:31;;;;;;;14.23;12.97;;;;;;;22.15;31.57;95629.97;6153319;28;109121;-57
2023/12/29 02:46:34;;;;;;;13.70;12.50;;;;;;;22.15;31.61;95629.16;6163555;28;109349;-57
2023/12/29 02:49:38;;;;;;;14.20;12.90;;;;;;;22.14;31.84;95617.72;6185957;28;109103;-57
2023/12/29 02:52:41;;;;;;;13.37;12.17;;;;;;;22.15;31.55;95618.50;6187964;28;109049;-57
2023/12/29 02:55:46;;;;;;;13.37;12.20;;;;;;;22.14;31.76;95614.25;6170794;28;110082;-57
2023/12/29 02:58:49;;;;;;;13.40;12.10;;;;;;;22.14;31.64;95616.94;6177871;28;109121;-58
2023/12/29 03:01:52;;;;;;;13.17;12.00;;;;;;;22.12;31.50;95614.56;6188369;28;110239;-57
2023/12/29 03:04:55;;;;;;;12.83;11.63;;;;;;;22.12;31.56;95601.22;6161285;28;109458;-57
2023/12/29 03:07:58;;;;;;;13.70;12.50;;;;;;;22.11;31.61;95603.09;6167531;28;109287;-57
2023/12/29 03:11:03;;;;;;;12.83;11.73;;;;;;;22.14;31.71;95608.94;6188269;28;109098;-57
2023/12/29 03:14:06;;;;;;;13.77;12.57;;;;;;;22.11;31.31;95589.78;6170238;28;108687;-57
2023/12/29 03:17:10;;;;;;;14.40;13.10;;;;;;;22.13;31.58;95594.03;6170753;28;109845;-57
2023/12/29 03:20:13;;;;;;;13.07;11.87;;;;;;;22.12;31.61;95593.22;6172453;28;110318;-57
2023/12/29 03:23:16;;;;;;;13.73;12.53;;;;;;;22.13;31.56;95596.69;6164192;28;109102;-62
2023/12/29 03:26:21;;;;;;;14.60;13.10;;;;;;;22.11;30.95;95587.09;6163020;28;109216;-65
2023/12/29 03:29:24;;;;;;;14.00;12.70;;;;;;;22.10;31.26;95580.19;6152236;28;109608;-63
2023/12/29 03:32:27;;;;;;;14.00;12.80;;;;;;;22.11;31.55;95581.00;6181817;28;110084;-62
2023/12/29 03:35:30;;;;;;;14.07;12.80;;;;;;;22.12;31.25;95593.22;6163739;28;109562;-61
2023/12/29 03:38:33;;;;;;;14.07;12.80;;;;;;;22.11;31.19;95584.44;6167908;28;110234;-59
2023/12/29 03:41:39;;;;;;;13.47;12.27;;;;;;;22.11;31.57;95587.09;6180168;28;110137;-61
2023/12/29 03:44:42;;;;;;;13.90;12.53;;;;;;;22.09;31.52;95589.28;6174609;28;109309;-61
2023/12/29 03:47:45;;;;;;;14.40;13.10;;;;;;;22.07;31.28;95594.13;6162248;28;109261;-62
2023/12/29 03:50:48;;;;;;;13.77;12.47;;;;;;;22.09;31.31;95591.16;6150950;28;109066;-62
2023/12/29 03:53:51;;;;;;;12.57;11.47;;;;;;;22.08;31.23;95590.38;6175837;28;109252;-64
2023/12/29 03:56:56;;;;;;;13.60;12.40;;;;;;;22.08;31.19;95602.91;6184814;28;109568;-61
2023/12/29 03:59:59;;;;;;;13.47;12.27;;;;;;;22.07;31.10;95607.44;6162851;28;111459;-62
2023/12/29 04:03:02;;;;;;;12.70;11.60;;;;;;;22.07;31.40;95612.78;6157079;28;110084;-61
2023/12/29 04:06:05;;;;;;;13.20;12.10;;;;;;;22.08;31.06;95610.91;6162285;28;109354;-63
2023/12/29 04:09:08;;;;;;;13.90;12.60;;;;;;;22.07;31.60;95610.09;6161637;28;109251;-62
2023/12/29 04:12:13;;;;;;;13.70;12.50;;;;;;;22.08;30.89;95609.03;6161877;28;109204;-61
2023/12/29 04:15:16;;;;;;;13.20;11.97;;;;;;;22.06;31.35;95599.75;6168775;28;110497;-61
2023/12/29 04:18:22;;;;;;;13.53;12.33;;;;;;;22.07;31.41;95604.78;6166535;28;109213;-61
2023/12/29 04:21:25;;;;;;;11.93;10.93;;;;;;;22.07;31.27;95604.78;6160635;28;109181;-61
2023/12/29 04:24:28;;;;;;;13.60;12.33;;;;;;;22.07;31.02;95606.66;6155853;28;110330;-59
2023/12/29 04:27:33;;;;;;;13.93;12.53;;;;;;;22.06;31.01;95608.53;6159248;28;109153;-62
2023/12/29 04:30:36;;;;;;;12.70;11.50;;;;;;;22.05;31.21;95606.94;6160719;28;109084;-62
2023/12/29 04:33:39;;;;;;;13.57;12.27;;;;;;;22.06;30.72;95610.41;6168056;28;110116;-56
2023/12/29 04:36:42;;;;;;;13.47;12.27;;;;;;;22.04;31.19;95608.03;6176616;28;112057;-56
2023/12/29 04:39:45;;;;;;;12.70;11.40;;;;;;;22.04;31.24;95604.56;6161119;28;109989;-57
2023/12/29 04:42:50;;;;;;;13.30;12.10;;;;;;;22.04;31.61;95609.91;6168059;28;110961;-57
2023/12/29 04:45:56;;;;;;;14.10;12.87;;;;;;;22.03;31.21;95611.78;6184896;28;111239;-58
2023/12/29 04:49:00;;;;;;;13.90;12.70;;;;;;;22.03;31.29;95605.66;6160266;28;109877;-57
2023/12/29 04:52:03;;;;;;;13.10;12.00;;;;;;;22.02;31.21;95604.88;6169364;28;109346;-57
2023/12/29 04:55:08;;;;;;;13.43;12.23;;;;;;;22.02;31.10;95602.19;6173910;28;109197;-57
2023/12/29 04:58:12;;;;;;;12.80;11.67;;;;;;;22.02;30.55;95596.88;6166659;28;108824;-57
2023/12/29 05:01:16;;;;;;;13.40;12.20;;;;;;;22.02;31.31;95596.88;6172458;28;110157;-57
2023/12/29 05:04:20;;;;;;;13.63;12.43;;;;;;;22.02;31.14;95591.53;6183060;28;109141;-62
2023/12/29 05:07:25;;;;;;;13.33;12.23;;;;;;;21.99;30.78;95589.44;6174599;28;109315;-62
2023/12/29 05:10:28;;;;;;;14.13;12.87;;;;;;;22.02;31.19;95591.53;6163085;28;109394;-61
2023/12/29 05:13:33;;;;;;;13.70;12.50;;;;;;;22.02;30.73;95588.88;6168307;28;110122;-61
2023/12/29 05:16:36;;;;;;;14.43;13.10;;;;;;;22.01;30.87;95581.97;6160863;28;109397;-61
2023/12/29 05:19:39;;;;;;;14.90;13.60;;;;;;;22.02;30.61;95582.75;6175579;28;109213;-61
2023/12/29 05:22:42;;;;;;;14.90;13.50;;;;;;;22.00;30.69;95580.34;6154606;28;109101;-61
2023/12/29 05:25:45;;;;;;;15.37;13.97;;;;;;;22.01;30.96;95586.47;6175890;28;109065;-62
2023/12/29 05:28:50;;;;;;;15.43;14.03;;;;;;;22.01;30.70;95594.47;6161604;28;109217;-61
2023/12/29 05:31:53;;;;;;;14.73;13.43;;;;;;;22.00;30.91;95591.00;6175712;28;109713;-62
2023/12/29 05:34:56;;;;;;;14.67;13.37;;;;;;;22.00;30.83;95591.00;6175011;28;109073;-61
2023/12/29 05:37:59;;;;;;;15.63;14.30;;;;;;;21.98;30.98;95593.19;6169245;28;110596;-62
2023/12/29 05:41:04;;;;;;;16.97;15.47;;;;;;;22.01;31.10;95597.13;6170920;28;109372;-61
2023/12/29 05:44:09;;;;;;;16.00;14.50;;;;;;;22.02;30.66;95598.75;6151697;28;109002;-57
2023/12/29 05:47:13;;;;;;;15.17;13.77;;;;;;;22.06;30.72;95602.41;6163855;28;109116;-58
2023/12/29 05:50:16;;;;;;;17.20;15.70;;;;;;;22.11;30.28;95608.44;6175120;28;109597;-58
2023/12/29 05:53:19;;;;;;;16.40;14.90;;;;;;;22.19;30.16;95607.00;6176403;28;110391;-56
2023/12/29 05:56:23;;;;;;;17.17;15.57;;;;;;;22.20;30.32;95599.78;6158776;28;110675;-56
2023/12/29 05:59:29;;;;;;;17.47;15.67;;;;;;;22.20;30.23;95610.44;6173214;28;110719;-56
2023/12/29 06:02:32;;;;;;;17.57;15.77;;;;;;;22.19;29.87;95595.53;6179345;28;110156;-56
2023/12/29 06:05:36;;;;;;;18.10;16.40;;;;;;;22.19;30.13;95607.00;6164464;28;109538;-56
2023/12/29 06:08:39;;;;;;;16.27;14.90;;;;;;;22.18;29.98;95604.59;6165788;28;109402;-56
2023/12/29 06:11:42;;;;;;;17.43;15.73;;;;;;;22.18;30.27;95597.41;6186859;28;111966;-56
2023/12/29 06:14:47;;;;;;;17.50;15.83;;;;;;;22.18;30.74;95585.94;6165857;28;109276;-56
2023/12/29 06:17:50;;;;;;;18.97;17.00;;;;;;;22.22;30.33;95592.28;6162571;28;109155;-55
2023/12/29 06:20:53;;;;;;;19.73;17.73;;;;;;;22.17;30.65;95584.34;6169781;28;109029;-57
2023/12/29 06:23:56;;;;;;;25.80;23.20;;;;;;;22.10;30.50;95585.53;6165463;28;110254;-57
2023/12/29 06:26:59;;;;;;;26.47;23.87;;;;;;;22.04;30.45;95584.03;6167592;28;109338;-57
2023/12/29 06:30:05;;;;;;;27.83;25.33;;;;;;;22.00;30.41;95584.91;6172633;28;108864;-57
2023/12/29 06:33:08;;;;;;;25.97;23.37;;;;;;;22.00;30.35;95596.34;6178636;28;110302;-56
2023/12/29 06:36:13;;;;;;;25.40;23.00;;;;;;;22.02;30.43;95588.09;6186764;28;110143;-56
2023/12/29 06:39:17;;;;;;;27.97;24.97;;;;;;;21.97;30.08;95588.94;6188940;28;110038;-56
2023/12/29 06:42:20;;;;;;;27.83;25.13;;;;;;;21.98;29.92;95595.84;6176684;28;110068;-57
2023/12/29 06:45:24;;;;;;;28.10;25.47;;;;;;;21.98;29.93;95598.50;6167653;28;109275;-56
2023/12/29 06:48:28;;;;;;;28.03;25.40;;;;;;;21.97;30.15;95599.59;6188475;28;110734;-57
2023/12/29 06:51:31;;;;;;;25.93;23.50;;;;;;;21.97;29.77;95596.94;6177996;28;110076;-57
2023/12/29 06:54:35;;;;;;;26.80;24.20;;;;;;;21.96;30.10;95600.69;6177300;28;109304;-56
2023/12/29 06:57:39;;;;;;;28.00;25.50;;;;;;;21.98;30.02;95600.38;6180855;28;113049;-56
2023/12/29 07:00:44;;;;;;;27.63;25.00;;;;;;;21.98;30.09;95603.06;6163018;28;109094;-56
2023/12/29 07:03:47;;;;;;;27.63;24.93;;;;;;;22.14;29.90;95606.25;6161160;28;109055;-57
2023/12/29 07:06:51;;;;;;;26.00;23.50;;;;;;;22.73;29.12;95608.19;6185626;28;109001;-56
2023/12/29 07:09:54;;;;;;;27.50;24.80;;;;;;;23.01;28.61;95608.97;6178087;28;110065;-56
2023/12/29 07:12:57;;;;;;;28.10;25.27;;;;;;;23.08;28.86;95598.69;6177997;28;109627;-56
2023/12/29 07:16:02;;;;;;;26.40;23.60;;;;;;;23.18;29.22;95609.16;6151764;28;109259;-56
2023/12/29 07:19:05;;;;;;;26.70;23.97;;;;;;;23.12;28.90;95597.00;6168526;28;109468;-57
2023/12/29 07:22:09;;;;;;;27.97;24.83;;;;;;;23.31;28.88;95596.91;6169020;28;109162;-57
2023/12/29 07:25:12;;;;;;;30.37;24.50;;;;;;;23.38;28.83;95588.50;6176163;28;110336;-56
2023/12/29 07:28:16;;;;;;;26.47;23.83;;;;;;;23.43;29.25;95594.50;6154591;28;110535;-56
2023/12/29 07:31:21;;;;;;;26.67;23.87;;;;;;;23.27;29.95;95596.69;6164697;28;110192;-56
2023/12/29 07:34:24;;;;;;;26.73;23.83;;;;;;;23.15;30.19;95591.06;6165101;28;110124;-56
2023/12/29 07:37:27;;;;;;;25.63;22.90;;;;;;;23.10;30.43;95585.84;6166410;28;109062;-56
2023/12/29 07:40:31;;;;;;;24.87;22.20;;;;;;;23.05;30.42;95583.28;6164255;28;109558;-55
2023/12/29 07:43:34;;;;;;;24.17;21.90;;;;;;;23.04;30.31;95580.91;6162981;28;109236;-55
2023/12/29 07:46:38;;;;;;;24.77;22.33;;;;;;;23.04;30.54;95583.59;6163050;28;109003;-56
2023/12/29 07:49:43;;;;;;;24.47;22.00;;;;;;;23.04;30.94;95584.38;6151957;28;110437;-56
2023/12/29 07:52:46;;;;;;;24.83;22.20;;;;;;;22.99;30.68;95587.13;6181879;28;110099;-56
2023/12/29 07:55:52;;;;;;;25.80;21.40;;;;;;;22.95;30.95;95583.47;6179641;28;108788;-56
2023/12/29 07:58:55;;;;;;;25.03;22.60;;;;;;;22.89;31.45;95590.81;6173431;28;109283;-56
2023/12/29 08:01:59;;;;;;;24.67;22.13;;;;;;;22.89;31.05;95590.81;6168489;28;109105;-56
2023/12/29 08:05:03;;;;;;;23.80;21.63;;;;;;;22.79;31.51;95603.53;6170833;28;110161;-56
2023/12/29 08:08:06;;;;;;;25.03;22.00;;;;;;;22.79;31.28;95606.22;6173669;28;109194;-55
2023/12/29 08:11:14;;;;;;;29.67;26.30;;;;;;;22.69;30.95;95605.34;6161664;28;109302;-55
2023/12/29 08:14:18;;;;;;;31.13;28.30;;;;;;;22.53;29.92;95609.34;6153972;28;109118;-55
2023/12/29 08:17:23;;;;;;;29.97;27.17;;;;;;;22.42;30.14;95595.38;6168735;28;109144;-55
2023/12/29 08:20:26;;;;;;;28.83;25.93;;;;;;;22.48;29.98;95600.63;6183254;28;110428;-56
2023/12/29 08:23:29;;;;;;;26.90;23.13;;;;;;;22.49;29.62;95602.97;6176204;28;109344;-56
2023/12/29 08:26:32;;;;;;;27.60;24.93;;;;;;;22.39;29.26;95606.63;6185495;28;109117;-55
2023/12/29 08:29:35;;;;;;;26.33;23.93;;;;;;;22.34;29.01;95600.59;6186599;28;109175;-56
2023/12/29 08:32:40;;;;;;;27.90;25.10;;;;;;;22.32;29.06;95603.53;6161496;28;109107;-56
2023/12/29 08:35:44;;;;;;;26.13;23.83;;;;;;;22.36;28.83;95614.44;6152616;28;110111;-56
2023/12/29 08:38:47;;;;;;;27.30;24.67;;;;;;;22.34;28.41;95609.38;6161737;28;108995;-56
2023/12/29 08:41:51;;;;;;;28.40;25.70;;;;;;;22.31;28.75;95604.63;6164692;28;108978;-55
2023/12/29 08:44:54;;;;;;;31.70;28.60;;;;;;;22.31;28.94;95614.50;6161268;28;109454;-56
2023/12/29 08:47:58;;;;;;;30.63;27.10;;;;;;;22.30;28.71;95610.25;6162473;28;110245;-55
2023/12/29 08:51:03;;;;;;;30.53;27.83;;;;;;;22.27;28.74;95613.50;6174840;28;109087;-56
2023/12/29 08:54:07;;;;;;;31.10;28.27;;;;;;;22.21;28.51;95606.69;6161756;28;109228;-56
2023/12/29 08:57:10;;;;;;;30.63;27.83;;;;;;;22.19;28.62;95607.00;6155463;28;109486;-56
2023/12/29 09:00:14;;;;;;;31.37;28.20;;;;;;;22.18;28.50;95617.91;6155726;28;109289;-55
2023/12/29 09:03:18;;;;;;;31.03;28.13;;;;;;;22.10;28.08;95612.19;6161397;28;109064;-57
2023/12/29 09:06:23;;;;;;;29.13;26.30;;;;;;;22.08;28.47;95606.34;6176940;28;108897;-56
2023/12/29 09:09:26;;;;;;;30.10;27.20;;;;;;;22.07;28.31;95607.44;6166574;28;110282;-56
2023/12/29 09:12:29;;;;;;;30.57;27.70;;;;;;;22.10;27.93;95606.06;6179264;28;109266;-56
2023/12/29 09:15:34;;;;;;;29.20;26.43;;;;;;;22.13;28.34;95596.69;6161298;28;109649;-58
2023/12/29 09:18:39;;;;;;;29.47;26.67;;;;;;;22.14;28.09;95598.25;6167476;28;109169;-58
2023/12/29 09:21:42;;;;;;;29.40;26.60;;;;;;;22.15;28.21;95592.63;6164444;28;110174;-61
2023/12/29 09:24:45;;;;;;;29.13;26.30;;;;;;;22.14;28.17;95585.72;6180314;28;110314;-59
2023/12/29 09:27:49;;;;;;;28.67;25.90;;;;;;;22.16;28.12;95588.09;6172342;28;110035;-58
2023/12/29 09:30:52;;;;;;;27.97;25.40;;;;;;;22.17;28.06;95577.16;6156108;28;110670;-58
2023/12/29 09:33:57;;;;;;;28.20;25.43;;;;;;;22.13;28.57;95578.03;6154510;28;109625;-59
2023/12/29 09:37:01;;;;;;;29.33;26.40;;;;;;;22.15;28.56;95576.66;6167288;28;109993;-58
2023/12/29 09:40:04;;;;;;;28.67;25.97;;;;;;;22.18;28.15;95577.94;6164025;28;109563;-58
2023/12/29 09:43:10;;;;;;;27.93;25.43;;;;;;;22.24;27.89;95576.78;6155257;28;110001;-58
2023/12/29 09:46:17;;;;;;;28.80;26.17;;;;;;;22.35;27.83;95570.19;6169826;28;110061;-58
2023/12/29 09:49:22;;;;;;;28.70;25.80;;;;;;;22.45;27.17;95566.53;6176505;28;109010;-58
2023/12/29 09:52:25;;;;;;;27.97;25.37;;;;;;;22.52;27.40;95551.75;6159425;28;110335;-58
2023/12/29 09:55:29;;;;;;;29.30;26.67;;;;;;;22.62;26.96;95538.22;6158223;28;109170;-58
2023/12/29 09:58:33;;;;;;;27.87;25.17;;;;;;;22.73;27.42;95543.38;6160699;28;109227;-58
2023/12/29 10:01:38;;;;;;;28.13;25.43;;;;;;;22.81;27.11;95537.31;6160139;28;109053;-58
2023/12/29 10:04:43;;;;;;;28.40;25.70;;;;;;;22.85;27.78;95530.28;6160355;28;109750;-58
2023/12/29 10:07:48;;;;;;;27.13;24.53;;;;;;;22.87;27.96;95528.94;6157758;28;109184;-58
2023/12/29 10:10:52;;;;;;;28.53;25.67;;;;;;;22.88;27.78;95524.38;6164980;28;110984;-58
2023/12/29 10:13:59;;;;;;;28.20;25.50;;;;;;;22.84;28.37;95523.38;6159974;28;110420;-58
2023/12/29 10:17:10;;;;;;;27.20;24.50;;;;;;;22.83;28.73;95521.81;6161727;28;109300;-58
2023/12/29 10:20:24;;;;;;;26.20;23.60;;;;;;;22.82;28.39;95512.22;6159847;28;109256;-59
2023/12/29 10:23:33;;;;;;;26.30;23.90;;;;;;;22.80;28.87;95506.41;6157047;28;110226;-57
2023/12/29 10:26:37;;;;;;;26.60;23.90;;;;;;;22.79;29.17;95505.59;6160522;28;110034;-57
2023/12/29 10:29:40;;;;;;;25.60;23.20;;;;;;;22.78;28.94;95504.03;6149832;28;109274;-56
2023/12/29 10:32:43;;;;;;;26.93;24.23;;;;;;;22.71;29.06;95506.31;6171630;28;109224;-56
2023/12/29 10:35:58;;;;;;;25.50;23.07;;;;;;;22.65;29.46;95497.59;6163640;28;109074;-56
2023/12/29 10:39:07;;;;;;;26.30;23.90;;;;;;;22.65;28.74;95484.28;6178364;28;109124;-57
2023/12/29 10:42:10;;;;;;;26.43;23.70;;;;;;;22.60;29.18;95473.72;6162092;28;109543;-57
2023/12/29 10:45:16;;;;;;;27.77;25.17;;;;;;;22.43;29.59;95473.50;6165384;28;109431;-56
2023/12/29 10:48:24;;;;;;;26.03;23.60;;;;;;;22.38;29.13;95471.72;6179326;28;109205;-56
2023/12/29 10:51:29;;;;;;;26.03;23.53;;;;;;;22.43;28.74;95470.84;6165762;28;109166;-56
2023/12/29 10:54:33;;;;;;;25.80;23.37;;;;;;;22.46;28.56;95451.56;6163769;28;109127;-56
2023/12/29 10:57:37;;;;;;;26.13;23.73;;;;;;;22.50;29.16;95457.09;6163428;28;109047;-56
2023/12/29 11:00:40;;;;;;;24.10;21.90;;;;;;;22.49;28.86;95442.97;6162978;28;109061;-56
2023/12/29 11:03:43;;;;;;;24.83;22.33;;;;;;;22.49;29.07;95436.84;6153144;28;109100;-56
2023/12/29 11:06:48;;;;;;;24.73;22.53;;;;;;;22.47;28.55;95433.69;6175306;28;110168;-57
2023/12/29 11:09:51;;;;;;;24.00;21.90;;;;;;;22.47;28.73;95428.34;6163654;28;109999;-57
2023/12/29 11:12:56;;;;;;;25.97;23.60;;;;;;;22.48;28.62;95430.72;6164660;28;109224;-57
2023/12/29 11:16:01;;;;;;;25.73;23.43;;;;;;;22.51;28.55;95421.31;6157042;28;109426;-57
2023/12/29 11:19:04;;;;;;;25.67;23.47;;;;;;;22.52;29.21;95420.25;6163841;28;109108;-55
2023/12/29 11:22:09;;;;;;;26.90;24.50;;;;;;;22.48;28.64;95420.06;6180326;28;110355;-57
2023/12/29 11:25:13;;;;;;;25.80;23.40;;;;;;;22.47;28.86;95412.34;6151983;28;109646;-57
2023/12/29 11:28:17;;;;;;;26.00;23.60;;;;;;;22.48;29.23;95414.72;6172686;28;109278;-57
2023/12/29 11:31:21;;;;;;;26.13;23.43;;;;;;;22.48;29.18;95408.59;6176160;28;109613;-64
2023/12/29 11:34:27;;;;;;;24.97;22.77;;;;;;;22.44;29.29;95405.75;6163156;28;108859;-57
2023/12/29 11:37:44;;;;;;;24.93;22.63;;;;;;;22.40;29.30;95405.56;6152215;28;109026;-57
2023/12/29 11:40:53;;;;;;;25.13;22.53;;;;;;;22.43;29.19;95398.84;6169409;28;109039;-57
2023/12/29 11:44:01;;;;;;;23.53;21.33;;;;;;;22.45;29.82;95399.31;6171614;28;109227;-55
2023/12/29 11:47:04;;;;;;;24.50;21.10;;;;;;;22.61;29.66;95394.47;6171291;28;109182;-55
2023/12/29 11:50:10;;;;;;;23.60;21.00;;;;;;;22.80;29.25;95403.13;6157722;28;110724;-55
2023/12/29 11:53:32;;;;;;;24.67;21.63;;;;;;;22.87;29.39;95392.84;6160988;28;110355;-55
2023/12/29 11:56:37;;;;;;;22.23;20.30;;;;;;;22.95;29.62;95385.97;6161760;28;109307;-55
2023/12/29 11:59:48;;;;;;;22.13;19.83;;;;;;;22.95;29.22;95386.75;6151130;28;110234;-55
2023/12/29 12:02:51;;;;;;;21.20;19.00;;;;;;;22.95;29.15;95384.09;6177881;28;110163;-55
2023/12/29 12:05:57;;;;;;;20.77;18.77;;;;;;;22.98;29.44;95385.38;6164229;28;110277;-55
2023/12/29 12:09:24;;;;;;;20.10;18.30;;;;;;;23.00;29.83;95381.31;6167994;28;110276;-55
2023/12/29 12:12:40;;;;;;;19.23;17.47;;;;;;;23.03;29.21;95377.25;6151765;28;109425;-54
2023/12/29 12:15:44;;;;;;;19.93;18.23;;;;;;;23.06;29.67;95384.66;6168945;28;109270;-53
2023/12/29 12:18:47;;;;;;;21.80;18.23;;;;;;;23.08;29.11;95373.69;6176969;28;110141;-53
2023/12/29 12:21:54;;;;;;;19.20;17.50;;;;;;;23.07;29.19;95367.53;6160589;28;109216;-53
2023/12/29 12:25:00;;;;;;;18.20;16.50;;;;;;;23.08;29.54;95373.69;6159555;28;109192;-53
2023/12/29 12:28:06;;;;;;;18.60;16.87;;;;;;;23.02;29.83;95375.69;6173880;28;109250;-53
2023/12/29 12:31:09;;;;;;;18.10;16.50;;;;;;;23.00;29.31;95367.94;6161665;28;109260;-54
2023/12/29 12:34:13;;;;;;;19.07;17.37;;;;;;;22.99;29.28;95371.72;6165126;28;109180;-53
2023/12/29 12:37:20;;;;;;;18.57;16.77;;;;;;;22.96;29.85;95374.22;6167240;28;110440;-53
2023/12/29 12:40:28;;;;;;;19.23;17.33;;;;;;;22.96;29.36;95371.53;6166266;28;109116;-54
2023/12/29 12:43:34;;;;;;;20.70;18.50;;;;;;;22.94;29.68;95373.72;6171601;28;109315;-54
2023/12/29 12:46:42;;;;;;;20.37;18.30;;;;;;;22.91;29.83;95375.13;6150965;28;109219;-53
2023/12/29 12:49:45;;;;;;;18.20;16.50;;;;;;;22.91;29.76;95371.66;6161383;28;109201;-53
2023/12/29 12:52:49;;;;;;;19.43;17.53;;;;;;;22.90;29.62;95370.09;6172914;28;109192;-54
2023/12/29 12:55:55;;;;;;;19.00;17.10;;;;;;;22.99;29.43;95376.25;6164785;28;110074;-53
2023/12/29 12:59:02;;;;;;;18.97;16.60;;;;;;;22.94;29.72;95371.06;6173034;28;109583;-53
2023/12/29 13:02:06;;;;;;;19.03;16.93;;;;;;;22.77;29.85;95374.38;6174407;28;109475;-56
2023/12/29 13:05:11;;;;;;;18.60;16.77;;;;;;;22.67;30.53;95372.72;6169013;28;109023;-56
2023/12/29 13:08:14;;;;;;;20.20;18.27;;;;;;;22.64;30.38;95368.00;6150345;28;109198;-56
2023/12/29 13:11:29;;;;;;;21.07;17.10;;;;;;;22.62;30.21;95364.03;6173597;28;109103;-56
2023/12/29 13:14:32;;;;;;;18.20;16.30;;;;;;;22.61;30.63;95375.81;6161069;28;109108;-56
2023/12/29 13:17:35;;;;;;;19.03;17.23;;;;;;;22.64;30.41;95364.53;6161290;28;110193;-57
2023/12/29 13:20:45;;;;;;;20.13;16.47;;;;;;;22.66;30.44;95363.13;6172313;28;109125;-57
2023/12/29 13:23:49;;;;;;;19.90;15.87;;;;;;;22.66;31.14;95357.81;6160405;28;109305;-57
2023/12/29 13:26:56;;;;;;;20.00;16.60;;;;;;;22.66;30.92;95352.47;6172594;28;108933;-57
2023/12/29 13:29:59;;;;;;;27.70;16.87;;;;;;;22.69;31.43;95354.56;6160573;28;109352;-57
2023/12/29 13:33:10;;;;;;;21.83;15.63;;;;;;;22.70;31.26;95352.69;6174711;28;110093;-57
2023/12/29 13:36:24;;;;;;;24.07;15.17;;;;;;;22.71;31.86;95348.91;6166739;28;110380;-57
2023/12/29 13:39:32;;;;;;;27.03;16.70;;;;;;;22.73;31.27;95356.63;6183510;28;109404;-57
2023/12/29 13:42:39;;;;;;;24.23;16.80;;;;;;;22.76;31.40;95356.78;6165228;28;110131;-57
2023/12/29 13:45:43;;;;;;;23.63;16.40;;;;;;;22.77;31.93;95352.25;6167796;28;109120;-57
2023/12/29 13:48:50;;;;;;;24.37;15.60;;;;;;;22.77;31.90;95352.25;6174464;28;108994;-57
2023/12/29 13:51:54;;;;;;;23.10;15.33;;;;;;;22.77;31.58;95347.69;6163120;28;109234;-57
2023/12/29 13:54:57;;;;;;;19.53;14.60;;;;;;;22.77;31.73;95344.25;6167555;28;109099;-57
2023/12/29 13:58:10;;;;;;;18.93;15.07;;;;;;;22.77;31.99;95347.69;6171799;28;108870;-57